Time;durP1;ratioP1;P1;durP2;ratioP2;P2;SDS_P1;SDS_P2;PMS_P1;PMS_P2;Temp;Humidity;BMP_temperature;BMP_pressure;BME280_temperature;BME280_humidity;BME280_pressure;Samples;Min_cycle;Max_cycle;Signal;HPM_P1;HPM_P2
2024/02/15 00:02:22;;;;;;;19.07;14.47;;;11.30;99.90;;;;;;5074115;28;20546;-63
2024/02/15 00:04:50;;;;;;;17.07;13.63;;;11.30;99.90;;;;;;5081356;28;20979;-64
2024/02/15 00:07:17;;;;;;;19.00;14.30;;;11.30;99.90;;;;;;5086440;28;20447;-63
2024/02/15 00:09:44;;;;;;;16.10;13.10;;;11.30;99.90;;;;;;5089312;28;20516;-64
2024/02/15 00:12:11;;;;;;;17.17;13.67;;;11.40;99.90;;;;;;5079360;28;20460;-64
2024/02/15 00:14:38;;;;;;;17.97;13.40;;;11.40;99.90;;;;;;5077522;28;20471;-64
2024/02/15 00:17:05;;;;;;;17.80;14.73;;;11.40;99.90;;;;;;5075868;28;20871;-64
2024/02/15 00:19:32;;;;;;;17.00;13.60;;;11.40;99.90;;;;;;5075864;28;20445;-63
2024/02/15 00:22:01;;;;;;;14.17;12.67;;;11.40;99.90;;;;;;5074463;28;20450;-63
2024/02/15 00:24:28;;;;;;;16.17;13.73;;;11.40;99.90;;;;;;5083253;28;20474;-64
2024/02/15 00:26:55;;;;;;;16.87;14.17;;;11.40;99.90;;;;;;5090594;28;21029;-63
2024/02/15 00:29:21;;;;;;;16.10;13.93;;;11.40;99.90;;;;;;5094133;28;20497;-63
2024/02/15 00:31:48;;;;;;;15.90;13.63;;;11.50;99.90;;;;;;5096207;28;20445;-64
2024/02/15 00:34:16;;;;;;;16.57;13.90;;;11.40;99.90;;;;;;5095929;28;20466;-64
2024/02/15 00:36:43;;;;;;;17.90;14.37;;;11.50;99.90;;;;;;5092162;28;20452;-63
2024/02/15 00:39:13;;;;;;;15.07;12.70;;;11.50;99.90;;;;;;5082389;28;20480;-64
2024/02/15 00:41:41;;;;;;;15.83;13.83;;;11.40;99.90;;;;;;5095798;28;20511;-64
2024/02/15 00:44:10;;;;;;;19.50;12.67;;;11.40;99.90;;;;;;5095052;28;20539;-64
2024/02/15 00:46:36;;;;;;;14.90;12.80;;;11.50;99.90;;;;;;5094783;28;20447;-63
2024/02/15 00:49:06;;;;;;;13.00;11.60;;;11.50;99.90;;;;;;5094459;28;20446;-65
2024/02/15 00:51:32;;;;;;;17.73;12.47;;;11.50;99.90;;;;;;5095356;28;20447;-64
2024/02/15 00:53:59;;;;;;;13.43;11.30;;;11.50;99.90;;;;;;5095124;28;20470;-65
2024/02/15 00:56:27;;;;;;;13.43;12.03;;;11.50;99.90;;;;;;5094542;28;20437;-64
2024/02/15 00:58:54;;;;;;;15.77;12.50;;;11.50;99.90;;;;;;5086163;28;20839;-64
2024/02/15 01:01:21;;;;;;;16.73;12.43;;;11.50;99.90;;;;;;5077547;28;20446;-64
2024/02/15 01:03:48;;;;;;;13.07;11.00;;;11.50;99.90;;;;;;5077678;28;20462;-64
2024/02/15 01:06:14;;;;;;;15.53;12.87;;;11.50;99.90;;;;;;5078183;28;20449;-63
2024/02/15 01:08:41;;;;;;;16.10;11.20;;;11.50;99.90;;;;;;5078064;28;20440;-64
2024/02/15 01:11:09;;;;;;;12.10;10.40;;;11.50;99.90;;;;;;5077034;28;20462;-64
2024/02/15 01:13:37;;;;;;;14.40;11.43;;;11.50;99.90;;;;;;5082031;28;20501;-63
2024/02/15 01:16:05;;;;;;;12.20;9.90;;;11.50;99.90;;;;;;5081814;28;20452;-64
2024/02/15 01:18:31;;;;;;;12.53;11.23;;;11.50;99.90;;;;;;5082895;28;20482;-64
2024/02/15 01:20:58;;;;;;;12.67;9.63;;;11.60;99.90;;;;;;5083418;28;20440;-63
2024/02/15 01:23:25;;;;;;;13.80;10.53;;;11.50;99.90;;;;;;5082903;28;20977;-63
2024/02/15 01:25:52;;;;;;;11.67;10.47;;;11.60;99.90;;;;;;5081863;28;20456;-64
2024/02/15 01:28:19;;;;;;;12.00;10.80;;;11.50;99.90;;;;;;5083884;28;20445;-64
2024/02/15 01:30:47;;;;;;;13.13;10.70;;;11.60;99.90;;;;;;5085568;28;20455;-64
2024/02/15 01:33:14;;;;;;;12.03;10.83;;;11.50;99.90;;;;;;5078984;28;20440;-64
2024/02/15 01:35:41;;;;;;;16.00;10.17;;;11.50;99.90;;;;;;5077626;28;20453;-64
2024/02/15 01:38:07;;;;;;;10.50;9.40;;;11.60;99.90;;;;;;5076301;28;20984;-64
2024/02/15 01:40:35;;;;;;;11.80;10.47;;;11.50;99.90;;;;;;5076459;28;20448;-64
2024/02/15 01:43:01;;;;;;;12.80;10.10;;;11.50;99.90;;;;;;5076418;28;20795;-64
2024/02/15 01:45:28;;;;;;;10.83;9.63;;;11.50;99.90;;;;;;5076089;28;20489;-64
2024/02/15 01:47:56;;;;;;;10.83;9.73;;;11.60;99.90;;;;;;5076403;28;20511;-64
2024/02/15 01:50:24;;;;;;;10.90;9.80;;;11.50;99.90;;;;;;5076092;28;20450;-64
2024/02/15 01:52:53;;;;;;;11.27;8.90;;;11.50;99.90;;;;;;5076612;28;20439;-63
2024/02/15 01:55:20;;;;;;;11.57;10.37;;;11.50;99.90;;;;;;5076351;28;21004;-63
2024/02/15 01:57:48;;;;;;;10.07;8.87;;;11.60;99.90;;;;;;5076226;28;20454;-64
2024/02/15 02:00:18;;;;;;;11.90;10.33;;;11.50;99.90;;;;;;5075902;28;20444;-64
2024/02/15 02:02:45;;;;;;;9.73;8.73;;;11.50;99.90;;;;;;5076573;28;20438;-65
2024/02/15 02:05:13;;;;;;;11.00;9.60;;;11.50;99.90;;;;;;5075915;28;20547;-65
2024/02/15 02:07:40;;;;;;;10.30;9.20;;;11.50;99.90;;;;;;5075399;28;20505;-65
2024/02/15 02:10:08;;;;;;;11.13;8.90;;;11.50;99.90;;;;;;5075873;28;20447;-65
2024/02/15 02:12:35;;;;;;;10.13;9.13;;;11.50;99.90;;;;;;5075579;28;20458;-64
2024/02/15 02:15:02;;;;;;;9.03;7.90;;;11.50;99.90;;;;;;5075243;28;20465;-64
2024/02/15 02:17:29;;;;;;;9.70;8.20;;;11.50;99.90;;;;;;5075733;28;20452;-66
2024/02/15 02:19:57;;;;;;;9.87;8.50;;;11.40;99.90;;;;;;5074953;28;20487;-64
2024/02/15 02:22:25;;;;;;;8.87;7.90;;;11.40;99.90;;;;;;5077222;28;20448;-64
2024/02/15 02:25:03;;;;;;;8.90;7.60;;;11.50;99.90;;;;;;5078005;28;20466;-62
2024/02/15 02:27:31;;;;;;;8.23;6.90;;;11.50;99.90;;;;;;5076748;28;20520;-65
2024/02/15 02:29:59;;;;;;;8.30;7.10;;;11.50;99.90;;;;;;5075223;28;20442;-65
2024/02/15 02:32:26;;;;;;;7.60;6.50;;;11.50;99.90;;;;;;5075479;28;20835;-65
2024/02/15 02:34:56;;;;;;;8.20;7.40;;;11.50;99.90;;;;;;5075403;28;20461;-65
2024/02/15 02:37:23;;;;;;;7.70;6.90;;;11.50;99.90;;;;;;5075685;28;20457;-65
2024/02/15 02:39:50;;;;;;;7.97;7.07;;;11.50;99.90;;;;;;5074813;28;20481;-65
2024/02/15 02:42:18;;;;;;;7.57;6.77;;;11.50;99.90;;;;;;5075597;28;20797;-64
2024/02/15 02:44:45;;;;;;;7.80;6.80;;;11.50;99.90;;;;;;5075420;28;20838;-66
2024/02/15 02:47:12;;;;;;;6.93;6.20;;;11.50;99.90;;;;;;5075324;28;20470;-65
2024/02/15 02:49:39;;;;;;;7.17;6.47;;;11.50;99.90;;;;;;5074945;28;20933;-65
2024/02/15 02:52:07;;;;;;;6.50;5.83;;;11.50;99.90;;;;;;5073484;28;20452;-64
2024/02/15 02:54:34;;;;;;;6.50;5.73;;;11.60;99.90;;;;;;5074872;28;20554;-65
2024/02/15 02:57:01;;;;;;;7.87;6.50;;;11.60;99.90;;;;;;5074898;28;20471;-65
2024/02/15 02:59:29;;;;;;;6.97;6.27;;;11.50;99.90;;;;;;5074822;28;20494;-64
2024/02/15 03:01:56;;;;;;;7.43;6.30;;;11.60;99.90;;;;;;5075331;28;20464;-63
2024/02/15 03:04:23;;;;;;;6.73;6.03;;;11.60;99.90;;;;;;5074245;28;20478;-64
2024/02/15 03:06:49;;;;;;;6.80;6.10;;;11.60;99.90;;;;;;5074201;28;20948;-65
2024/02/15 03:09:16;;;;;;;7.37;6.60;;;11.60;99.90;;;;;;5074455;28;20443;-64
2024/02/15 03:11:43;;;;;;;6.90;6.20;;;11.60;99.90;;;;;;5074312;28;20454;-63
2024/02/15 03:14:11;;;;;;;7.20;6.27;;;11.60;99.90;;;;;;5074012;28;20813;-64
2024/02/15 03:16:39;;;;;;;9.53;6.03;;;11.60;99.90;;;;;;5073938;28;20982;-64
2024/02/15 03:19:05;;;;;;;6.67;6.07;;;11.60;99.90;;;;;;5073735;28;21048;-64
2024/02/15 03:21:32;;;;;;;6.23;5.60;;;11.60;99.90;;;;;;5074077;28;20444;-64
2024/02/15 03:23:59;;;;;;;7.50;6.10;;;11.60;99.90;;;;;;5074122;28;20463;-64
2024/02/15 03:26:31;;;;;;;7.70;6.80;;;11.60;99.90;;;;;;5074727;28;20436;-64
2024/02/15 03:28:58;;;;;;;7.83;5.80;;;11.60;99.90;;;;;;5074576;28;20422;-64
2024/02/15 03:31:25;;;;;;;6.83;5.80;;;11.60;99.90;;;;;;5074714;28;20466;-64
2024/02/15 03:33:54;;;;;;;7.73;6.53;;;11.60;99.90;;;;;;5073899;28;20465;-65
2024/02/15 03:36:21;;;;;;;7.37;6.20;;;11.60;99.90;;;;;;5073986;28;20454;-64
2024/02/15 03:38:48;;;;;;;8.93;6.07;;;11.60;99.90;;;;;;5073889;28;20476;-65
2024/02/15 03:41:15;;;;;;;6.70;6.00;;;11.60;99.90;;;;;;5073941;28;20444;-64
2024/02/15 03:43:42;;;;;;;8.50;6.77;;;11.60;99.90;;;;;;5073875;28;20510;-64
2024/02/15 03:46:12;;;;;;;8.70;6.77;;;11.70;99.90;;;;;;5074173;28;20448;-64
2024/02/15 03:48:39;;;;;;;6.60;5.90;;;11.60;99.90;;;;;;5073996;28;20911;-63
2024/02/15 03:51:07;;;;;;;7.47;6.70;;;11.70;99.90;;;;;;5073785;28;20442;-64
2024/02/15 03:53:37;;;;;;;6.30;5.67;;;11.70;99.90;;;;;;5073781;28;20478;-64
2024/02/15 03:56:04;;;;;;;9.33;7.27;;;11.70;99.90;;;;;;5073547;28;20849;-64
2024/02/15 03:58:32;;;;;;;8.47;6.90;;;11.80;99.90;;;;;;5074051;28;20479;-64
2024/02/15 04:00:59;;;;;;;6.97;6.27;;;11.80;99.90;;;;;;5073777;28;20487;-65
2024/02/15 04:03:26;;;;;;;8.23;7.03;;;11.80;99.90;;;;;;5073205;28;20446;-64
2024/02/15 04:05:53;;;;;;;6.80;6.10;;;11.80;99.90;;;;;;5073488;28;20446;-64
2024/02/15 04:08:21;;;;;;;6.37;5.77;;;11.80;99.90;;;;;;5073429;28;20515;-64
2024/02/15 04:13:11;;;;;;;8.80;6.20;;;11.80;99.90;;;;;;5090902;27;20561;-64
2024/02/15 04:15:38;;;;;;;8.43;6.60;;;11.90;99.90;;;;;;5090941;28;20445;-63
2024/02/15 04:18:05;;;;;;;8.37;6.63;;;11.90;99.90;;;;;;5092012;28;20867;-63
2024/02/15 04:20:32;;;;;;;6.70;6.00;;;11.90;99.90;;;;;;5091677;28;20955;-63
2024/02/15 04:22:59;;;;;;;6.30;5.57;;;11.80;99.90;;;;;;5091228;28;20972;-63
2024/02/15 04:25:27;;;;;;;5.97;5.37;;;11.90;99.90;;;;;;5091225;28;20476;-63
2024/02/15 04:27:54;;;;;;;6.30;5.70;;;11.90;99.90;;;;;;5081406;22;21024;-64
2024/02/15 04:30:23;;;;;;;6.23;5.63;;;11.90;99.90;;;;;;5054050;28;20465;-63
2024/02/15 04:32:51;;;;;;;6.60;6.00;;;11.90;99.90;;;;;;5053178;28;20480;-64
2024/02/15 04:35:19;;;;;;;7.70;6.57;;;11.80;99.90;;;;;;5054401;28;20487;-64
2024/02/15 04:37:46;;;;;;;6.90;5.93;;;11.90;99.90;;;;;;5053536;28;20470;-64
2024/02/15 04:40:13;;;;;;;7.17;6.47;;;11.90;99.90;;;;;;5053508;28;21029;-63
2024/02/15 04:42:41;;;;;;;8.07;7.27;;;11.80;99.90;;;;;;5053576;28;20437;-63
2024/02/15 04:45:10;;;;;;;7.03;6.03;;;11.90;99.90;;;;;;5054017;28;20488;-63
2024/02/15 04:47:40;;;;;;;8.07;6.90;;;11.90;99.90;;;;;;5055018;28;20464;-64
2024/02/15 04:50:08;;;;;;;7.60;6.70;;;11.90;99.90;;;;;;5054512;28;20456;-64
2024/02/15 04:52:35;;;;;;;6.97;6.27;;;11.80;99.90;;;;;;5053453;28;20511;-63
2024/02/15 04:55:04;;;;;;;7.57;6.17;;;11.90;99.90;;;;;;5052116;28;20444;-64
2024/02/15 04:57:33;;;;;;;7.60;5.70;;;11.90;99.90;;;;;;5052010;28;20537;-63
2024/02/15 05:00:00;;;;;;;7.03;5.90;;;11.90;99.90;;;;;;5052157;28;20510;-65
2024/02/15 05:02:27;;;;;;;8.23;7.40;;;11.90;99.90;;;;;;5075003;22;20529;-64
2024/02/15 05:04:56;;;;;;;7.90;6.57;;;11.90;99.90;;;;;;5049420;28;20444;-61
2024/02/15 05:07:23;;;;;;;9.37;6.50;;;11.80;99.90;;;;;;5049527;28;20476;-64
2024/02/15 05:09:52;;;;;;;7.87;7.07;;;11.90;99.90;;;;;;5049578;28;20451;-64
2024/02/15 05:12:24;;;;;;;7.50;6.00;;;11.90;99.90;;;;;;5053143;28;20489;-63
2024/02/15 05:14:51;;;;;;;7.23;6.07;;;11.90;99.90;;;;;;5050789;28;20429;-64
2024/02/15 05:17:18;;;;;;;6.83;5.77;;;11.80;99.90;;;;;;5052256;28;20450;-63
2024/02/15 05:19:45;;;;;;;7.53;5.67;;;11.90;99.90;;;;;;5050712;28;20447;-64
2024/02/15 05:22:15;;;;;;;8.30;6.53;;;11.90;99.90;;;;;;5050398;28;20467;-63
2024/02/15 05:24:41;;;;;;;7.13;6.40;;;11.90;99.90;;;;;;5035814;28;21016;-63
2024/02/15 05:27:08;;;;;;;7.60;6.50;;;11.90;99.90;;;;;;5039425;28;20983;-63
2024/02/15 05:29:35;;;;;;;6.30;5.50;;;11.90;99.90;;;;;;5039167;28;20454;-63
2024/02/15 05:32:02;;;;;;;6.93;5.90;;;11.90;99.90;;;;;;5040082;28;20670;-64
2024/02/15 05:34:30;;;;;;;7.77;6.43;;;11.90;99.90;;;;;;5036409;28;20520;-64
2024/02/15 05:36:56;;;;;;;8.10;6.67;;;11.90;99.90;;;;;;5035936;28;20444;-64
2024/02/15 05:39:25;;;;;;;7.70;6.57;;;11.90;99.90;;;;;;5035908;28;20438;-63
2024/02/15 05:41:51;;;;;;;6.30;5.70;;;11.90;99.90;;;;;;5035723;28;20502;-63
2024/02/15 05:44:20;;;;;;;7.10;6.40;;;12.00;99.90;;;;;;5035606;28;20464;-63
2024/02/15 05:46:48;;;;;;;7.30;6.53;;;12.00;99.90;;;;;;5035572;28;20473;-63
2024/02/15 05:49:17;;;;;;;9.13;7.80;;;12.00;99.90;;;;;;5035666;28;20458;-65
2024/02/15 05:51:44;;;;;;;6.40;5.70;;;12.00;99.90;;;;;;5035516;28;20481;-64
2024/02/15 05:54:11;;;;;;;8.47;6.83;;;12.00;99.90;;;;;;5035564;28;20450;-65
2024/02/15 05:56:39;;;;;;;6.90;6.20;;;12.00;99.90;;;;;;5035333;28;20965;-63
2024/02/15 05:59:10;;;;;;;7.07;6.37;;;12.00;99.90;;;;;;5035714;28;20452;-65
2024/02/15 06:01:37;;;;;;;12.13;7.73;;;12.00;99.90;;;;;;5034957;28;20543;-64
2024/02/15 06:04:08;;;;;;;11.00;7.90;;;12.00;99.90;;;;;;5035244;28;20422;-61
2024/02/15 06:06:34;;;;;;;10.33;8.00;;;12.00;99.90;;;;;;5035946;28;20464;-63
2024/02/15 06:09:02;;;;;;;8.60;7.60;;;12.00;99.90;;;;;;5035387;28;20448;-63
2024/02/15 06:11:29;;;;;;;9.60;8.60;;;12.00;99.90;;;;;;5034985;28;20468;-64
2024/02/15 06:13:57;;;;;;;7.60;6.70;;;12.00;99.90;;;;;;5035347;28;20452;-64
2024/02/15 06:16:24;;;;;;;8.90;8.00;;;12.10;99.90;;;;;;5035297;28;20448;-64
2024/02/15 06:18:50;;;;;;;9.30;7.60;;;12.10;99.90;;;;;;5034576;28;20791;-63
2024/02/15 06:21:18;;;;;;;10.77;7.90;;;12.10;99.90;;;;;;5035015;28;20470;-63
2024/02/15 06:23:45;;;;;;;8.67;6.33;;;12.10;99.90;;;;;;5034764;28;20445;-63
2024/02/15 06:26:11;;;;;;;11.03;7.77;;;12.00;99.90;;;;;;5035201;28;20445;-63
2024/02/15 06:39:40;;;;;;;11.40;8.50;;;12.00;99.90;;;;;;5034976;28;20400;-64
2024/02/15 06:42:07;;;;;;;13.67;9.30;;;12.00;99.90;;;;;;5034470;28;20913;-64
2024/02/15 06:44:35;;;;;;;13.67;9.53;;;12.00;99.90;;;;;;5034741;28;20439;-63
2024/02/15 06:47:03;;;;;;;13.03;10.57;;;12.00;99.90;;;;;;5034286;28;20444;-65
2024/02/15 06:49:30;;;;;;;15.60;10.30;;;12.10;99.90;;;;;;5034919;28;20449;-63
2024/02/15 06:51:58;;;;;;;15.90;10.07;;;12.10;99.90;;;;;;5035054;28;20491;-64
2024/02/15 06:54:25;;;;;;;11.60;9.70;;;12.10;99.90;;;;;;5035105;28;20818;-64
2024/02/15 06:56:54;;;;;;;12.07;9.73;;;12.10;99.90;;;;;;5036037;28;20447;-64
2024/02/15 06:59:22;;;;;;;12.00;10.47;;;12.10;99.90;;;;;;5035017;28;20452;-63
2024/02/15 07:01:49;;;;;;;11.90;10.13;;;12.20;99.90;;;;;;5034634;28;20474;-64
2024/02/15 07:04:17;;;;;;;13.67;9.50;;;12.10;99.90;;;;;;5034444;28;20543;-68
2024/02/15 07:06:47;;;;;;;14.20;10.17;;;12.20;99.90;;;;;;5034751;28;20446;-64
2024/02/15 07:09:17;;;;;;;11.17;10.00;;;12.20;99.90;;;;;;5034621;28;20437;-64
2024/02/15 07:11:44;;;;;;;15.80;10.73;;;12.20;99.90;;;;;;5034680;28;20468;-62
2024/02/15 07:14:11;;;;;;;14.27;10.23;;;12.20;99.90;;;;;;5034552;28;20468;-63
2024/02/15 07:16:38;;;;;;;14.13;10.80;;;12.20;99.90;;;;;;5034728;28;20455;-63
2024/02/15 07:19:05;;;;;;;15.40;12.63;;;12.20;99.90;;;;;;5034314;28;20441;-62
2024/02/15 07:21:33;;;;;;;18.47;11.90;;;12.20;99.90;;;;;;5034081;28;20473;-64
2024/02/15 07:24:00;;;;;;;14.33;12.00;;;12.20;99.90;;;;;;5034307;28;20441;-64
2024/02/15 07:26:27;;;;;;;15.80;11.97;;;12.20;99.90;;;;;;5034441;28;20445;-63
2024/02/15 07:28:56;;;;;;;18.23;11.60;;;12.20;99.90;;;;;;5034337;28;20446;-63
2024/02/15 07:31:23;;;;;;;18.27;13.13;;;12.20;99.90;;;;;;5033766;28;20983;-64
2024/02/15 07:33:52;;;;;;;14.70;11.33;;;12.20;99.90;;;;;;5034799;28;20477;-63
2024/02/15 07:36:21;;;;;;;15.30;12.27;;;12.20;99.90;;;;;;5034232;28;20882;-64
2024/02/15 07:38:49;;;;;;;15.57;13.07;;;12.30;99.90;;;;;;5035259;28;20449;-64
2024/02/15 07:41:17;;;;;;;14.70;12.00;;;12.30;99.90;;;;;;5033708;28;20464;-63
2024/02/15 07:43:44;;;;;;;16.83;11.07;;;12.30;99.90;;;;;;5033952;28;20452;-63
2024/02/15 07:46:14;;;;;;;15.80;11.30;;;12.30;99.90;;;;;;5033586;28;20441;-63
2024/02/15 07:48:45;;;;;;;14.80;11.87;;;12.40;99.90;;;;;;5033369;28;20470;-63
2024/02/15 07:51:12;;;;;;;16.70;11.23;;;12.40;99.90;;;;;;5034218;28;20988;-63
2024/02/15 07:53:40;;;;;;;16.50;11.60;;;12.40;99.90;;;;;;5034188;28;20480;-63
2024/02/15 07:56:08;;;;;;;20.63;10.93;;;12.50;99.90;;;;;;5033628;28;20445;-62
2024/02/15 07:58:35;;;;;;;16.10;11.43;;;12.50;99.90;;;;;;5033838;28;20806;-63
2024/02/15 08:01:01;;;;;;;15.97;11.23;;;12.60;99.90;;;;;;5033930;28;20457;-64
2024/02/15 08:03:29;;;;;;;13.70;10.10;;;12.60;99.90;;;;;;5034039;28;20842;-63
2024/02/15 08:05:56;;;;;;;15.70;10.47;;;12.70;99.90;;;;;;5034092;28;20472;-63
2024/02/15 08:08:23;;;;;;;14.00;11.23;;;12.70;99.90;;;;;;5034430;28;20434;-63
2024/02/15 08:10:51;;;;;;;12.07;10.80;;;12.70;99.90;;;;;;5035204;28;20465;-62
2024/02/15 08:13:22;;;;;;;17.67;10.40;;;12.80;99.90;;;;;;5035837;28;20900;-62
2024/02/15 08:15:52;;;;;;;12.57;10.13;;;12.80;99.90;;;;;;5035601;28;20552;-63
2024/02/15 08:18:20;;;;;;;11.47;9.67;;;12.90;99.90;;;;;;5036104;28;20450;-63
2024/02/15 08:20:46;;;;;;;11.20;8.80;;;12.90;99.90;;;;;;5035194;28;20447;-63
2024/02/15 08:23:13;;;;;;;10.53;8.20;;;12.90;99.90;;;;;;5035518;28;20445;-63
2024/02/15 08:25:41;;;;;;;11.93;8.40;;;13.00;99.90;;;;;;5034196;28;20938;-62
2024/02/15 08:28:07;;;;;;;10.87;7.53;;;13.00;99.90;;;;;;5034684;28;20476;-63
2024/02/15 08:30:37;;;;;;;9.60;6.07;;;13.00;99.90;;;;;;5034252;28;20446;-64
2024/02/15 08:33:05;;;;;;;7.73;5.80;;;13.00;99.90;;;;;;5035042;28;20487;-63
2024/02/15 08:35:31;;;;;;;6.80;5.30;;;13.00;99.90;;;;;;5034001;28;20447;-64
2024/02/15 08:37:58;;;;;;;12.63;5.40;;;13.10;99.90;;;;;;5034682;28;20485;-63
2024/02/15 08:40:26;;;;;;;5.57;4.43;;;13.10;99.90;;;;;;5034575;28;20447;-63
2024/02/15 08:42:52;;;;;;;5.43;4.00;;;13.10;99.90;;;;;;5034167;28;20468;-64
2024/02/15 08:45:19;;;;;;;4.10;3.70;;;13.20;99.90;;;;;;5035490;28;20458;-63
2024/02/15 08:47:49;;;;;;;4.70;3.53;;;13.20;99.90;;;;;;5034824;28;20443;-65
2024/02/15 08:50:17;;;;;;;6.50;3.57;;;13.30;99.90;;;;;;5035749;28;20450;-63
2024/02/15 08:52:43;;;;;;;6.67;4.20;;;13.30;99.90;;;;;;5034646;28;20485;-64
2024/02/15 08:55:14;;;;;;;4.77;3.50;;;13.40;99.90;;;;;;5036167;28;20449;-63
2024/02/15 08:57:43;;;;;;;6.60;3.13;;;13.40;99.90;;;;;;5036084;28;20856;-63
2024/02/15 09:00:14;;;;;;;3.43;3.10;;;13.50;99.90;;;;;;5039646;28;20485;-63
2024/02/15 09:02:41;;;;;;;7.20;2.90;;;13.50;99.90;;;;;;5038641;28;20975;-62
2024/02/15 09:05:09;;;;;;;4.07;3.40;;;13.60;99.90;;;;;;5039015;28;20570;-63
2024/02/15 09:07:36;;;;;;;3.50;2.97;;;13.70;99.90;;;;;;5039770;28;20451;-63
2024/02/15 09:10:03;;;;;;;4.20;3.13;;;13.80;99.90;;;;;;5037428;28;20451;-64
2024/02/15 09:12:31;;;;;;;6.93;2.63;;;13.80;99.90;;;;;;5037384;28;20463;-63
2024/02/15 09:14:58;;;;;;;3.53;2.70;;;13.90;99.90;;;;;;5037313;28;20454;-63
2024/02/15 09:17:26;;;;;;;4.63;2.90;;;14.00;99.90;;;;;;5037985;28;20445;-63
2024/02/15 09:19:54;;;;;;;3.20;2.60;;;14.00;99.90;;;;;;5038238;28;20964;-64
2024/02/15 09:22:22;;;;;;;3.77;3.07;;;14.00;99.90;;;;;;5038235;28;20557;-63
2024/02/15 09:24:49;;;;;;;6.43;2.90;;;14.00;99.90;;;;;;5039292;28;20491;-63
2024/02/15 09:27:16;;;;;;;3.97;2.47;;;14.10;99.90;;;;;;5038250;28;20451;-63
2024/02/15 09:29:43;;;;;;;3.50;3.00;;;14.10;99.90;;;;;;5039048;28;20467;-63
2024/02/15 09:32:09;;;;;;;2.63;2.37;;;14.20;99.90;;;;;;5037709;28;20851;-64
2024/02/15 09:34:36;;;;;;;2.67;1.83;;;14.20;99.90;;;;;;5038320;28;20496;-64
2024/02/15 09:37:03;;;;;;;3.53;2.00;;;14.20;99.90;;;;;;5038921;28;20439;-63
2024/02/15 09:39:31;;;;;;;8.37;2.60;;;14.30;99.90;;;;;;5038280;28;20850;-63
2024/02/15 09:41:59;;;;;;;5.63;2.67;;;14.30;99.90;;;;;;5038129;28;20467;-63
2024/02/15 09:44:28;;;;;;;7.43;2.20;;;14.30;99.90;;;;;;5037390;28;20876;-63
2024/02/15 09:47:04;;;;;;;2.87;2.00;;;14.40;99.90;;;;;;5038155;28;20449;-63
2024/02/15 09:49:36;;;;;;;4.60;2.27;;;14.50;99.90;;;;;;5037753;28;20907;-63
2024/02/15 09:52:04;;;;;;;5.53;2.10;;;14.50;99.90;;;;;;5037901;28;20975;-64
2024/02/15 09:54:35;;;;;;;2.67;2.10;;;14.50;99.90;;;;;;5038526;28;20480;-64
2024/02/15 09:57:06;;;;;;;2.43;2.00;;;14.50;99.90;;;;;;5038182;28;20964;-63
2024/02/15 09:59:36;;;;;;;6.23;3.00;;;14.40;99.90;;;;;;5038012;28;20802;-63
2024/02/15 10:02:03;;;;;;;2.80;2.43;;;14.40;99.90;;;;;;5037959;28;20488;-64
2024/02/15 10:04:29;;;;;;;2.13;1.60;;;14.40;99.90;;;;;;5037582;28;20444;-64
2024/02/15 10:06:56;;;;;;;5.90;1.87;;;14.30;99.90;;;;;;5036734;28;20455;-64
2024/02/15 10:09:30;;;;;;;2.43;1.67;;;14.30;99.90;;;;;;5038149;28;20447;-64
2024/02/15 10:11:59;;;;;;;4.53;1.93;;;14.30;99.90;;;;;;5038180;28;20471;-63
2024/02/15 10:14:26;;;;;;;2.70;2.20;;;14.30;99.90;;;;;;5037950;28;20494;-64
2024/02/15 10:16:54;;;;;;;3.10;1.90;;;14.20;99.90;;;;;;5037022;28;20946;-64
2024/02/15 10:19:24;;;;;;;3.10;2.23;;;14.20;99.90;;;;;;5037505;28;20443;-64
2024/02/15 10:21:55;;;;;;;4.90;1.77;;;14.20;99.90;;;;;;5037429;28;20937;-64
2024/02/15 10:24:24;;;;;;;2.80;2.07;;;14.20;99.90;;;;;;5037342;28;20430;-64
2024/02/15 10:26:51;;;;;;;2.87;1.77;;;14.20;99.90;;;;;;5036839;28;20447;-64
2024/02/15 10:29:20;;;;;;;3.27;2.20;;;14.20;99.90;;;;;;5037510;28;20451;-63
2024/02/15 10:31:55;;;;;;;2.60;1.90;;;14.20;99.90;;;;;;5036953;28;20467;-63
2024/02/15 10:34:22;;;;;;;2.53;2.17;;;14.10;99.90;;;;;;5037103;28;20487;-64
2024/02/15 10:36:49;;;;;;;3.30;2.47;;;14.10;99.90;;;;;;5036629;28;20452;-64
2024/02/15 10:39:19;;;;;;;4.20;2.07;;;14.00;99.90;;;;;;5036823;28;20976;-64
2024/02/15 10:41:47;;;;;;;2.80;2.10;;;13.90;99.90;;;;;;5036909;28;20467;-64
2024/02/15 10:44:19;;;;;;;3.80;2.40;;;13.70;99.90;;;;;;5036174;28;20815;-63
2024/02/15 10:46:51;;;;;;;4.73;2.47;;;13.60;99.90;;;;;;5035836;28;20493;-63
2024/02/15 10:49:19;;;;;;;4.70;2.20;;;13.50;99.90;;;;;;5035010;28;20517;-64
2024/02/15 10:51:52;;;;;;;3.97;3.20;;;13.40;99.90;;;;;;5035511;28;20522;-63
2024/02/15 10:54:31;;;;;;;4.60;3.30;;;13.30;99.90;;;;;;5035412;28;20467;-63
2024/02/15 10:57:05;;;;;;;6.13;3.50;;;13.40;99.90;;;;;;5034626;28;20800;-63
2024/02/15 10:59:37;;;;;;;4.23;2.80;;;13.30;99.90;;;;;;5034732;28;20910;-63
2024/02/15 11:02:27;;;;;;;4.70;2.80;;;13.40;99.90;;;;;;5034374;28;20896;-62
2024/02/15 11:04:56;;;;;;;3.00;2.40;;;13.40;99.90;;;;;;5034843;28;20471;-63
2024/02/15 11:07:26;;;;;;;5.40;3.20;;;13.40;99.90;;;;;;5034350;28;20473;-62
2024/02/15 11:09:53;;;;;;;3.20;2.90;;;13.50;99.90;;;;;;5034661;28;20481;-63
2024/02/15 11:12:20;;;;;;;4.40;2.70;;;13.50;99.90;;;;;;5034267;28;20463;-63
2024/02/15 11:14:49;;;;;;;4.70;2.63;;;13.60;99.90;;;;;;5034247;28;20548;-64
2024/02/15 11:17:54;;;;;;;3.77;2.60;;;13.70;99.90;;;;;;5035781;28;20459;-63
2024/02/15 11:20:52;;;;;;;4.30;3.90;;;13.70;99.90;;;;;;5037080;28;20805;-62
2024/02/15 11:23:27;;;;;;;4.80;3.77;;;13.70;99.90;;;;;;4975989;28;20438;-63
2024/02/15 11:25:56;;;;;;;3.10;2.80;;;13.80;99.90;;;;;;5027369;28;20491;-63
2024/02/15 11:28:38;;;;;;;4.07;3.00;;;13.80;99.90;;;;;;5039316;28;20948;-63
2024/02/15 11:31:09;;;;;;;5.00;2.90;;;13.80;99.90;;;;;;5039351;28;20438;-63
2024/02/15 11:33:36;;;;;;;3.40;3.10;;;13.80;99.90;;;;;;5035589;28;20545;-63
2024/02/15 11:36:05;;;;;;;6.23;2.40;;;13.90;99.90;;;;;;5036438;28;20460;-64
2024/02/15 11:38:32;;;;;;;3.50;2.50;;;13.90;99.90;;;;;;5035629;28;20474;-63
2024/02/15 11:41:06;;;;;;;3.07;2.27;;;14.00;99.90;;;;;;5036031;28;20443;-65
2024/02/15 11:43:58;;;;;;;4.60;2.93;;;14.00;99.90;;;;;;5036775;28;20443;-64
2024/02/15 11:46:30;;;;;;;3.43;3.03;;;14.10;99.90;;;;;;5036514;28;20458;-64
2024/02/15 11:48:59;;;;;;;4.53;2.87;;;14.10;99.90;;;;;;5036720;28;20436;-64
2024/02/15 11:51:31;;;;;;;3.47;2.40;;;14.20;99.90;;;;;;5035561;28;20932;-63
2024/02/15 11:54:08;;;;;;;3.20;2.90;;;14.20;99.90;;;;;;5036273;28;20479;-63
2024/02/15 11:57:04;;;;;;;3.60;2.57;;;14.20;99.90;;;;;;5035937;28;20863;-66
2024/02/15 11:59:32;;;;;;;5.00;2.80;;;14.20;99.90;;;;;;5036042;28;20451;-64
2024/02/15 12:18:52;;;;;;;4.67;2.27;;;14.40;99.90;;;;;;5036309;28;20430;-63
2024/02/15 12:21:22;;;;;;;6.00;2.40;;;14.30;99.90;;;;;;5035658;28;20517;-64
2024/02/15 12:23:52;;;;;;;4.00;2.00;;;14.40;99.90;;;;;;5036023;28;20420;-64
2024/02/15 12:26:20;;;;;;;4.10;1.90;;;14.30;99.90;;;;;;5035039;28;20891;-64
2024/02/15 12:28:51;;;;;;;3.03;1.97;;;14.20;99.90;;;;;;5036048;28;20439;-64
2024/02/15 12:31:19;;;;;;;3.37;2.00;;;14.20;99.90;;;;;;5035944;28;20945;-63
2024/02/15 12:33:49;;;;;;;3.40;2.20;;;14.10;99.90;;;;;;5037412;28;20509;-64
2024/02/15 12:36:17;;;;;;;1.80;1.60;;;14.00;99.90;;;;;;5039145;28;20518;-64
2024/02/15 12:38:44;;;;;;;4.17;2.50;;;14.00;99.90;;;;;;5040570;28;20502;-66
2024/02/15 12:41:21;;;;;;;3.50;2.27;;;14.00;99.90;;;;;;5039579;28;20473;-63
2024/02/15 12:43:53;;;;;;;2.60;1.87;;;13.90;99.90;;;;;;5039277;28;20814;-63
2024/02/15 12:46:20;;;;;;;3.20;1.70;;;14.00;99.90;;;;;;5040635;28;20431;-65
2024/02/15 12:48:49;;;;;;;2.63;1.80;;;14.00;99.90;;;;;;5040094;28;20447;-62
2024/02/15 12:51:16;;;;;;;4.33;1.70;;;14.00;99.90;;;;;;5040702;28;20562;-64
2024/02/15 12:53:43;;;;;;;3.93;1.90;;;14.10;99.90;;;;;;5039622;28;20510;-60
2024/02/15 12:56:10;;;;;;;2.43;2.13;;;14.10;99.90;;;;;;5038882;28;20969;-66
2024/02/15 12:58:39;;;;;;;1.83;1.70;;;14.10;99.90;;;;;;5038283;28;20443;-64
2024/02/15 13:01:05;;;;;;;2.93;2.00;;;14.10;99.90;;;;;;5038900;28;20493;-64
2024/02/15 13:03:32;;;;;;;1.93;1.53;;;14.20;99.90;;;;;;5039082;28;20453;-64
2024/02/15 13:06:00;;;;;;;2.00;1.40;;;14.20;99.90;;;;;;5039067;28;20455;-63
2024/02/15 13:08:27;;;;;;;2.90;1.30;;;14.20;99.90;;;;;;5039509;28;20447;-63
2024/02/15 13:10:54;;;;;;;2.40;1.50;;;14.20;99.90;;;;;;5038402;28;20447;-65
2024/02/15 13:13:22;;;;;;;1.67;1.20;;;14.20;99.90;;;;;;5038307;28;20538;-65
2024/02/15 13:15:49;;;;;;;3.90;1.40;;;14.20;99.90;;;;;;5038400;28;20479;-64
2024/02/15 13:18:17;;;;;;;4.43;1.60;;;14.30;99.90;;;;;;5039059;28;20470;-63